sensor_id;sensor_type;location;lat;lon;timestamp;temperature;humidity
14099;DHT22;7126;48.458;7.930;2023-04-09T00:02:24;8.80;99.90
14099;DHT22;7126;48.458;7.930;2023-04-09T00:04:51;8.80;99.90
14099;DHT22;7126;48.458;7.930;2023-04-09T00:07:16;8.80;99.90
14099;DHT22;7126;48.458;7.930;2023-04-09T00:09:42;8.80;99.90
14099;DHT22;7126;48.458;7.930;2023-04-09T00:12:07;8.80;99.90
14099;DHT22;7126;48.458;7.930;2023-04-09T00:14:33;8.80;99.90
14099;DHT22;7126;48.458;7.930;2023-04-09T00:16:59;8.80;99.90
14099;DHT22;7126;48.458;7.930;2023-04-09T00:19:24;8.80;99.90
14099;DHT22;7126;48.458;7.930;2023-04-09T00:21:50;8.80;99.90
14099;DHT22;7126;48.458;7.930;2023-04-09T00:24:16;8.80;99.90
14099;DHT22;7126;48.458;7.930;2023-04-09T00:26:42;8.80;99.90
14099;DHT22;7126;48.458;7.930;2023-04-09T00:29:08;8.80;99.90
14099;DHT22;7126;48.458;7.930;2023-04-09T00:31:33;8.70;99.90
14099;DHT22;7126;48.458;7.930;2023-04-09T00:33:59;8.70;99.90
14099;DHT22;7126;48.458;7.930;2023-04-09T00:36:24;8.50;99.90
14099;DHT22;7126;48.458;7.930;2023-04-09T00:38:50;8.40;99.90
14099;DHT22;7126;48.458;7.930;2023-04-09T00:41:18;8.40;99.90
14099;DHT22;7126;48.458;7.930;2023-04-09T00:43:43;8.40;99.90
14099;DHT22;7126;48.458;7.930;2023-04-09T00:46:09;8.30;99.90
14099;DHT22;7126;48.458;7.930;2023-04-09T00:48:35;8.40;99.90
14099;DHT22;7126;48.458;7.930;2023-04-09T00:51:00;8.30;99.90
14099;DHT22;7126;48.458;7.930;2023-04-09T00:53:26;8.30;99.90
14099;DHT22;7126;48.458;7.930;2023-04-09T00:55:52;8.30;99.90
14099;DHT22;7126;48.458;7.930;2023-04-09T00:58:19;8.20;99.90
14099;DHT22;7126;48.458;7.930;2023-04-09T01:00:45;8.10;99.90
14099;DHT22;7126;48.458;7.930;2023-04-09T01:03:10;8.00;99.90
14099;DHT22;7126;48.458;7.930;2023-04-09T01:06:03;8.00;99.90
14099;DHT22;7126;48.458;7.930;2023-04-09T01:14:03;7.70;99.90
14099;DHT22;7126;48.458;7.930;2023-04-09T01:16:31;7.70;99.90
14099;DHT22;7126;48.458;7.930;2023-04-09T01:19:01;7.70;99.90
14099;DHT22;7126;48.458;7.930;2023-04-09T01:21:32;7.60;99.90
14099;DHT22;7126;48.458;7.930;2023-04-09T01:24:08;7.50;99.90
14099;DHT22;7126;48.458;7.930;2023-04-09T01:26:58;7.50;99.90
14099;DHT22;7126;48.458;7.930;2023-04-09T01:29:30;7.50;99.90
14099;DHT22;7126;48.458;7.930;2023-04-09T01:31:58;7.40;99.90
14099;DHT22;7126;48.458;7.930;2023-04-09T01:34:25;7.40;99.90
14099;DHT22;7126;48.458;7.930;2023-04-09T01:36:55;7.30;99.90
14099;DHT22;7126;48.458;7.930;2023-04-09T01:39:22;7.30;99.90
14099;DHT22;7126;48.458;7.930;2023-04-09T01:41:49;7.20;99.90
14099;DHT22;7126;48.458;7.930;2023-04-09T01:44:16;7.20;99.90
14099;DHT22;7126;48.458;7.930;2023-04-09T01:46:42;7.10;99.90
14099;DHT22;7126;48.458;7.930;2023-04-09T01:49:11;7.00;99.90
14099;DHT22;7126;48.458;7.930;2023-04-09T01:51:37;7.00;99.90
14099;DHT22;7126;48.458;7.930;2023-04-09T01:54:03;7.10;99.90
14099;DHT22;7126;48.458;7.930;2023-04-09T01:56:42;7.10;99.90
14099;DHT22;7126;48.458;7.930;2023-04-09T01:59:09;7.10;99.90
14099;DHT22;7126;48.458;7.930;2023-04-09T02:01:43;7.00;99.90
14099;DHT22;7126;48.458;7.930;2023-04-09T02:04:16;7.00;99.90
14099;DHT22;7126;48.458;7.930;2023-04-09T02:06:56;7.00;99.90
14099;DHT22;7126;48.458;7.930;2023-04-09T02:09:23;6.90;99.90
14099;DHT22;7126;48.458;7.930;2023-04-09T02:11:51;6.90;99.90
14099;DHT22;7126;48.458;7.930;2023-04-09T02:14:17;6.80;99.90
14099;DHT22;7126;48.458;7.930;2023-04-09T02:16:45;6.60;99.90
14099;DHT22;7126;48.458;7.930;2023-04-09T02:19:11;6.50;99.90
14099;DHT22;7126;48.458;7.930;2023-04-09T02:21:36;6.40;99.90
14099;DHT22;7126;48.458;7.930;2023-04-09T02:24:02;6.30;99.90
14099;DHT22;7126;48.458;7.930;2023-04-09T02:26:28;6.30;99.90
14099;DHT22;7126;48.458;7.930;2023-04-09T02:28:53;6.30;99.90
14099;DHT22;7126;48.458;7.930;2023-04-09T02:31:19;6.30;99.90
14099;DHT22;7126;48.458;7.930;2023-04-09T02:33:44;6.30;99.90
14099;DHT22;7126;48.458;7.930;2023-04-09T02:36:11;6.30;99.90
14099;DHT22;7126;48.458;7.930;2023-04-09T02:38:39;6.40;99.90
14099;DHT22;7126;48.458;7.930;2023-04-09T02:41:06;6.40;99.90
14099;DHT22;7126;48.458;7.930;2023-04-09T02:43:31;6.40;99.90
14099;DHT22;7126;48.458;7.930;2023-04-09T02:45:57;6.30;99.90
14099;DHT22;7126;48.458;7.930;2023-04-09T02:48:22;6.20;99.90
14099;DHT22;7126;48.458;7.930;2023-04-09T02:50:48;6.30;99.90
14099;DHT22;7126;48.458;7.930;2023-04-09T02:53:13;6.40;99.90
14099;DHT22;7126;48.458;7.930;2023-04-09T02:55:39;6.50;99.90
14099;DHT22;7126;48.458;7.930;2023-04-09T02:58:04;6.50;99.90
14099;DHT22;7126;48.458;7.930;2023-04-09T03:00:30;6.60;99.90
14099;DHT22;7126;48.458;7.930;2023-04-09T03:02:56;6.70;99.90
14099;DHT22;7126;48.458;7.930;2023-04-09T03:05:22;6.70;99.90
14099;DHT22;7126;48.458;7.930;2023-04-09T03:07:47;6.80;99.90
14099;DHT22;7126;48.458;7.930;2023-04-09T03:10:14;6.80;99.90
14099;DHT22;7126;48.458;7.930;2023-04-09T03:12:39;6.80;99.90
14099;DHT22;7126;48.458;7.930;2023-04-09T03:15:05;6.90;99.90
14099;DHT22;7126;48.458;7.930;2023-04-09T03:17:31;7.00;99.90
14099;DHT22;7126;48.458;7.930;2023-04-09T03:19:57;7.00;99.90
14099;DHT22;7126;48.458;7.930;2023-04-09T03:22:22;7.10;99.90
14099;DHT22;7126;48.458;7.930;2023-04-09T03:24:48;7.10;99.90
14099;DHT22;7126;48.458;7.930;2023-04-09T03:27:13;7.20;99.90
14099;DHT22;7126;48.458;7.930;2023-04-09T03:29:39;7.20;99.90
14099;DHT22;7126;48.458;7.930;2023-04-09T03:32:05;7.20;99.90
14099;DHT22;7126;48.458;7.930;2023-04-09T03:34:30;7.20;99.90
14099;DHT22;7126;48.458;7.930;2023-04-09T03:36:56;7.30;99.90
14099;DHT22;7126;48.458;7.930;2023-04-09T03:39:21;7.30;99.90
14099;DHT22;7126;48.458;7.930;2023-04-09T03:41:47;7.30;99.90
14099;DHT22;7126;48.458;7.930;2023-04-09T03:44:13;7.30;99.90
14099;DHT22;7126;48.458;7.930;2023-04-09T03:46:38;7.30;99.90
14099;DHT22;7126;48.458;7.930;2023-04-09T03:49:04;7.40;99.90
14099;DHT22;7126;48.458;7.930;2023-04-09T03:51:29;7.50;99.90
14099;DHT22;7126;48.458;7.930;2023-04-09T03:53:56;7.50;99.90
14099;DHT22;7126;48.458;7.930;2023-04-09T03:56:21;7.60;99.90
14099;DHT22;7126;48.458;7.930;2023-04-09T03:58:47;7.50;99.90
14099;DHT22;7126;48.458;7.930;2023-04-09T04:01:13;7.50;99.90
14099;DHT22;7126;48.458;7.930;2023-04-09T04:03:39;7.40;99.90
14099;DHT22;7126;48.458;7.930;2023-04-09T04:06:05;7.40;99.90
14099;DHT22;7126;48.458;7.930;2023-04-09T04:08:30;7.30;99.90
14099;DHT22;7126;48.458;7.930;2023-04-09T04:11:02;7.20;99.90
14099;DHT22;7126;48.458;7.930;2023-04-09T04:13:27;7.10;99.90
14099;DHT22;7126;48.458;7.930;2023-04-09T04:15:53;7.00;99.90
14099;DHT22;7126;48.458;7.930;2023-04-09T04:18:18;6.90;99.90
14099;DHT22;7126;48.458;7.930;2023-04-09T04:20:44;6.90;99.90
14099;DHT22;7126;48.458;7.930;2023-04-09T04:23:10;6.80;99.90
14099;DHT22;7126;48.458;7.930;2023-04-09T04:25:35;6.80;99.90
14099;DHT22;7126;48.458;7.930;2023-04-09T04:28:01;6.70;99.90
14099;DHT22;7126;48.458;7.930;2023-04-09T04:30:26;6.70;99.90
14099;DHT22;7126;48.458;7.930;2023-04-09T04:32:52;6.70;99.90
14099;DHT22;7126;48.458;7.930;2023-04-09T04:35:17;6.60;99.90
14099;DHT22;7126;48.458;7.930;2023-04-09T04:37:43;6.60;99.90
14099;DHT22;7126;48.458;7.930;2023-04-09T04:40:09;6.60;99.90
14099;DHT22;7126;48.458;7.930;2023-04-09T04:42:34;6.70;99.90
14099;DHT22;7126;48.458;7.930;2023-04-09T04:45:00;6.60;99.90
14099;DHT22;7126;48.458;7.930;2023-04-09T04:47:25;6.60;99.90
14099;DHT22;7126;48.458;7.930;2023-04-09T04:49:51;6.70;99.90
14099;DHT22;7126;48.458;7.930;2023-04-09T04:52:17;6.70;99.90
14099;DHT22;7126;48.458;7.930;2023-04-09T04:54:42;6.70;99.90
14099;DHT22;7126;48.458;7.930;2023-04-09T04:57:08;6.80;99.90
14099;DHT22;7126;48.458;7.930;2023-04-09T04:59:37;6.70;99.90
14099;DHT22;7126;48.458;7.930;2023-04-09T05:02:07;6.60;99.90
14099;DHT22;7126;48.458;7.930;2023-04-09T05:04:33;6.60;99.90
14099;DHT22;7126;48.458;7.930;2023-04-09T05:06:58;6.60;99.90
14099;DHT22;7126;48.458;7.930;2023-04-09T05:09:24;6.70;99.90
14099;DHT22;7126;48.458;7.930;2023-04-09T05:11:50;6.60;99.90
14099;DHT22;7126;48.458;7.930;2023-04-09T05:14:15;6.70;99.90
14099;DHT22;7126;48.458;7.930;2023-04-09T05:16:41;6.70;99.90
14099;DHT22;7126;48.458;7.930;2023-04-09T05:19:07;6.70;99.90
14099;DHT22;7126;48.458;7.930;2023-04-09T05:21:32;6.70;99.90
14099;DHT22;7126;48.458;7.930;2023-04-09T05:23:58;6.80;99.90
14099;DHT22;7126;48.458;7.930;2023-04-09T05:26:24;6.80;99.90
14099;DHT22;7126;48.458;7.930;2023-04-09T05:28:49;6.80;99.90
14099;DHT22;7126;48.458;7.930;2023-04-09T05:31:15;6.80;99.90
14099;DHT22;7126;48.458;7.930;2023-04-09T05:33:41;6.90;99.90
14099;DHT22;7126;48.458;7.930;2023-04-09T05:36:07;6.90;99.90
14099;DHT22;7126;48.458;7.930;2023-04-09T05:38:33;6.80;99.90
14099;DHT22;7126;48.458;7.930;2023-04-09T05:40:59;6.80;99.90
14099;DHT22;7126;48.458;7.930;2023-04-09T05:43:25;6.80;99.90
14099;DHT22;7126;48.458;7.930;2023-04-09T05:45:50;6.80;99.90
14099;DHT22;7126;48.458;7.930;2023-04-09T05:48:16;6.90;99.90
14099;DHT22;7126;48.458;7.930;2023-04-09T05:50:48;6.80;99.90
14099;DHT22;7126;48.458;7.930;2023-04-09T05:53:15;6.90;99.90
14099;DHT22;7126;48.458;7.930;2023-04-09T05:55:40;6.90;99.90
14099;DHT22;7126;48.458;7.930;2023-04-09T05:58:06;6.90;99.90
14099;DHT22;7126;48.458;7.930;2023-04-09T06:00:31;7.00;99.90
14099;DHT22;7126;48.458;7.930;2023-04-09T06:02:57;7.00;99.90
14099;DHT22;7126;48.458;7.930;2023-04-09T06:05:22;7.10;99.90
14099;DHT22;7126;48.458;7.930;2023-04-09T06:07:48;7.10;99.90
14099;DHT22;7126;48.458;7.930;2023-04-09T06:10:14;7.20;99.90
14099;DHT22;7126;48.458;7.930;2023-04-09T06:12:39;7.10;99.90
14099;DHT22;7126;48.458;7.930;2023-04-09T06:15:05;7.20;99.90
14099;DHT22;7126;48.458;7.930;2023-04-09T06:17:31;7.20;99.90
14099;DHT22;7126;48.458;7.930;2023-04-09T06:19:57;7.30;99.90
14099;DHT22;7126;48.458;7.930;2023-04-09T06:22:22;7.30;99.90
14099;DHT22;7126;48.458;7.930;2023-04-09T06:24:48;7.40;99.90
14099;DHT22;7126;48.458;7.930;2023-04-09T06:27:13;7.50;99.90
14099;DHT22;7126;48.458;7.930;2023-04-09T06:29:39;7.50;99.90
14099;DHT22;7126;48.458;7.930;2023-04-09T06:32:05;7.60;99.90
14099;DHT22;7126;48.458;7.930;2023-04-09T06:34:30;7.70;99.90
14099;DHT22;7126;48.458;7.930;2023-04-09T06:36:56;7.80;99.90
14099;DHT22;7126;48.458;7.930;2023-04-09T06:39:21;7.90;99.90
14099;DHT22;7126;48.458;7.930;2023-04-09T06:41:47;7.90;99.90
14099;DHT22;7126;48.458;7.930;2023-04-09T06:44:12;8.00;99.90
14099;DHT22;7126;48.458;7.930;2023-04-09T06:46:38;8.10;99.90
14099;DHT22;7126;48.458;7.930;2023-04-09T06:49:04;8.20;99.90
14099;DHT22;7126;48.458;7.930;2023-04-09T06:51:30;8.20;99.90
14099;DHT22;7126;48.458;7.930;2023-04-09T06:53:56;8.30;99.90
14099;DHT22;7126;48.458;7.930;2023-04-09T06:56:21;8.30;99.90
14099;DHT22;7126;48.458;7.930;2023-04-09T06:58:47;8.40;99.90
14099;DHT22;7126;48.458;7.930;2023-04-09T07:01:13;8.50;99.90
14099;DHT22;7126;48.458;7.930;2023-04-09T07:03:41;8.60;99.90
14099;DHT22;7126;48.458;7.930;2023-04-09T07:06:07;8.70;99.90
14099;DHT22;7126;48.458;7.930;2023-04-09T07:08:32;8.70;99.90
14099;DHT22;7126;48.458;7.930;2023-04-09T07:10:58;8.80;99.90
14099;DHT22;7126;48.458;7.930;2023-04-09T07:13:23;8.80;99.90
14099;DHT22;7126;48.458;7.930;2023-04-09T07:15:49;8.90;99.90
14099;DHT22;7126;48.458;7.930;2023-04-09T07:18:14;9.00;99.90
14099;DHT22;7126;48.458;7.930;2023-04-09T07:20:40;9.10;99.90
14099;DHT22;7126;48.458;7.930;2023-04-09T07:23:07;9.20;99.90
14099;DHT22;7126;48.458;7.930;2023-04-09T07:25:32;9.40;99.90
14099;DHT22;7126;48.458;7.930;2023-04-09T07:27:58;9.50;99.90
14099;DHT22;7126;48.458;7.930;2023-04-09T07:30:23;9.50;99.90
14099;DHT22;7126;48.458;7.930;2023-04-09T07:32:50;9.60;99.90
14099;DHT22;7126;48.458;7.930;2023-04-09T07:35:16;9.70;99.90
14099;DHT22;7126;48.458;7.930;2023-04-09T07:37:42;9.80;99.90
14099;DHT22;7126;48.458;7.930;2023-04-09T07:40:08;9.90;99.90
14099;DHT22;7126;48.458;7.930;2023-04-09T07:42:36;10.10;99.90
14099;DHT22;7126;48.458;7.930;2023-04-09T07:45:02;10.10;99.90
14099;DHT22;7126;48.458;7.930;2023-04-09T07:47:28;10.20;99.90
14099;DHT22;7126;48.458;7.930;2023-04-09T07:49:54;10.20;99.90
14099;DHT22;7126;48.458;7.930;2023-04-09T07:52:19;10.40;99.90
14099;DHT22;7126;48.458;7.930;2023-04-09T07:54:45;10.40;99.90
14099;DHT22;7126;48.458;7.930;2023-04-09T07:57:10;10.50;99.90
14099;DHT22;7126;48.458;7.930;2023-04-09T07:59:36;10.60;99.90
14099;DHT22;7126;48.458;7.930;2023-04-09T08:02:02;10.70;99.90
14099;DHT22;7126;48.458;7.930;2023-04-09T08:04:28;10.80;99.90
14099;DHT22;7126;48.458;7.930;2023-04-09T08:06:54;10.90;99.90
14099;DHT22;7126;48.458;7.930;2023-04-09T08:09:20;11.00;99.90
14099;DHT22;7126;48.458;7.930;2023-04-09T08:11:46;10.90;99.90
14099;DHT22;7126;48.458;7.930;2023-04-09T08:14:13;11.00;99.90
14099;DHT22;7126;48.458;7.930;2023-04-09T08:16:43;11.20;99.90
14099;DHT22;7126;48.458;7.930;2023-04-09T08:19:10;11.30;99.90
14099;DHT22;7126;48.458;7.930;2023-04-09T08:21:36;11.50;99.90
14099;DHT22;7126;48.458;7.930;2023-04-09T08:24:03;11.60;99.90
14099;DHT22;7126;48.458;7.930;2023-04-09T08:26:30;11.60;99.90
14099;DHT22;7126;48.458;7.930;2023-04-09T08:28:56;11.60;99.90
14099;DHT22;7126;48.458;7.930;2023-04-09T08:31:22;11.70;99.90
14099;DHT22;7126;48.458;7.930;2023-04-09T08:33:47;11.70;99.90
14099;DHT22;7126;48.458;7.930;2023-04-09T08:36:13;11.70;99.90
14099;DHT22;7126;48.458;7.930;2023-04-09T08:38:39;11.70;99.90
14099;DHT22;7126;48.458;7.930;2023-04-09T08:41:05;11.70;99.90
14099;DHT22;7126;48.458;7.930;2023-04-09T08:43:31;11.60;99.90
14099;DHT22;7126;48.458;7.930;2023-04-09T08:45:59;11.70;99.90
14099;DHT22;7126;48.458;7.930;2023-04-09T08:48:27;11.80;99.90
14099;DHT22;7126;48.458;7.930;2023-04-09T08:50:52;11.80;99.90
14099;DHT22;7126;48.458;7.930;2023-04-09T08:53:20;11.80;99.90
14099;DHT22;7126;48.458;7.930;2023-04-09T08:55:48;11.80;99.90
14099;DHT22;7126;48.458;7.930;2023-04-09T08:58:14;11.70;99.90
14099;DHT22;7126;48.458;7.930;2023-04-09T09:00:39;11.70;99.90
14099;DHT22;7126;48.458;7.930;2023-04-09T09:03:09;11.70;99.90
14099;DHT22;7126;48.458;7.930;2023-04-09T09:05:44;11.80;99.90
14099;DHT22;7126;48.458;7.930;2023-04-09T09:08:25;11.80;99.90
14099;DHT22;7126;48.458;7.930;2023-04-09T09:10:51;11.80;99.90
14099;DHT22;7126;48.458;7.930;2023-04-09T09:13:24;11.80;99.90
14099;DHT22;7126;48.458;7.930;2023-04-09T09:15:51;11.90;99.90
14099;DHT22;7126;48.458;7.930;2023-04-09T09:18:20;11.90;99.90
14099;DHT22;7126;48.458;7.930;2023-04-09T09:20:46;12.10;99.90
14099;DHT22;7126;48.458;7.930;2023-04-09T09:23:12;12.30;99.90
14099;DHT22;7126;48.458;7.930;2023-04-09T09:25:39;12.30;99.90
14099;DHT22;7126;48.458;7.930;2023-04-09T09:28:07;12.30;99.90
14099;DHT22;7126;48.458;7.930;2023-04-09T09:30:33;12.40;99.90
14099;DHT22;7126;48.458;7.930;2023-04-09T09:33:10;12.70;99.90
14099;DHT22;7126;48.458;7.930;2023-04-09T09:35:54;12.70;99.90
14099;DHT22;7126;48.458;7.930;2023-04-09T09:38:21;13.00;99.90
14099;DHT22;7126;48.458;7.930;2023-04-09T09:40:48;13.30;99.90
14099;DHT22;7126;48.458;7.930;2023-04-09T09:43:14;13.30;99.90
14099;DHT22;7126;48.458;7.930;2023-04-09T09:45:40;13.30;99.90
14099;DHT22;7126;48.458;7.930;2023-04-09T09:48:09;13.30;99.90
14099;DHT22;7126;48.458;7.930;2023-04-09T09:50:37;13.20;99.90
14099;DHT22;7126;48.458;7.930;2023-04-09T09:53:04;13.20;99.90
14099;DHT22;7126;48.458;7.930;2023-04-09T09:55:32;13.20;99.90
14099;DHT22;7126;48.458;7.930;2023-04-09T09:58:01;13.10;99.90
14099;DHT22;7126;48.458;7.930;2023-04-09T10:00:31;13.10;99.90
14099;DHT22;7126;48.458;7.930;2023-04-09T10:03:00;13.10;99.90
14099;DHT22;7126;48.458;7.930;2023-04-09T10:05:31;13.20;99.90
14099;DHT22;7126;48.458;7.930;2023-04-09T10:07:59;13.60;99.90
14099;DHT22;7126;48.458;7.930;2023-04-09T10:10:26;13.80;99.90
14099;DHT22;7126;48.458;7.930;2023-04-09T10:12:52;13.70;99.90
14099;DHT22;7126;48.458;7.930;2023-04-09T10:15:18;13.70;99.90
14099;DHT22;7126;48.458;7.930;2023-04-09T10:17:44;13.70;99.90
14099;DHT22;7126;48.458;7.930;2023-04-09T10:20:14;13.80;99.90
14099;DHT22;7126;48.458;7.930;2023-04-09T10:22:43;13.80;99.90
14099;DHT22;7126;48.458;7.930;2023-04-09T10:25:09;13.90;99.90
14099;DHT22;7126;48.458;7.930;2023-04-09T10:27:35;13.90;99.90
14099;DHT22;7126;48.458;7.930;2023-04-09T10:30:01;13.90;99.90
14099;DHT22;7126;48.458;7.930;2023-04-09T10:32:33;14.00;99.90
14099;DHT22;7126;48.458;7.930;2023-04-09T10:35:02;14.00;99.90
14099;DHT22;7126;48.458;7.930;2023-04-09T10:37:28;14.10;99.90
14099;DHT22;7126;48.458;7.930;2023-04-09T10:39:54;14.10;99.90
14099;DHT22;7126;48.458;7.930;2023-04-09T10:42:34;14.10;99.90
14099;DHT22;7126;48.458;7.930;2023-04-09T10:47:40;14.10;99.90
14099;DHT22;7126;48.458;7.930;2023-04-09T10:50:25;14.10;99.90
14099;DHT22;7126;48.458;7.930;2023-04-09T10:52:53;14.20;99.90
14099;DHT22;7126;48.458;7.930;2023-04-09T10:55:38;14.10;99.90
14099;DHT22;7126;48.458;7.930;2023-04-09T10:58:05;14.20;99.90
14099;DHT22;7126;48.458;7.930;2023-04-09T11:00:35;14.10;99.90
14099;DHT22;7126;48.458;7.930;2023-04-09T11:03:23;14.10;99.90
14099;DHT22;7126;48.458;7.930;2023-04-09T11:05:52;14.10;99.90
14099;DHT22;7126;48.458;7.930;2023-04-09T11:08:19;14.20;99.90
14099;DHT22;7126;48.458;7.930;2023-04-09T11:10:46;14.30;99.90
14099;DHT22;7126;48.458;7.930;2023-04-09T11:13:13;14.40;99.90
14099;DHT22;7126;48.458;7.930;2023-04-09T11:15:39;15.20;99.90
14099;DHT22;7126;48.458;7.930;2023-04-09T11:18:05;15.80;99.90
14099;DHT22;7126;48.458;7.930;2023-04-09T11:20:33;16.40;99.90
14099;DHT22;7126;48.458;7.930;2023-04-09T11:22:59;16.60;99.80
14099;DHT22;7126;48.458;7.930;2023-04-09T11:25:27;16.50;98.50
14099;DHT22;7126;48.458;7.930;2023-04-09T11:27:53;16.20;99.00
14099;DHT22;7126;48.458;7.930;2023-04-09T11:30:19;16.30;98.50
14099;DHT22;7126;48.458;7.930;2023-04-09T11:32:45;16.50;99.10
14099;DHT22;7126;48.458;7.930;2023-04-09T11:35:18;16.30;97.80
14099;DHT22;7126;48.458;7.930;2023-04-09T11:37:45;16.40;98.80
14099;DHT22;7126;48.458;7.930;2023-04-09T11:42:45;16.80;98.20
14099;DHT22;7126;48.458;7.930;2023-04-09T11:45:11;16.90;96.40
14099;DHT22;7126;48.458;7.930;2023-04-09T11:47:39;17.20;97.90
14099;DHT22;7126;48.458;7.930;2023-04-09T11:50:09;17.50;97.80
14099;DHT22;7126;48.458;7.930;2023-04-09T11:52:35;17.70;96.40
14099;DHT22;7126;48.458;7.930;2023-04-09T11:55:04;17.50;94.80
14099;DHT22;7126;48.458;7.930;2023-04-09T11:57:42;17.50;95.90
14099;DHT22;7126;48.458;7.930;2023-04-09T12:02:44;18.00;94.30
14099;DHT22;7126;48.458;7.930;2023-04-09T12:05:12;18.10;94.70
14099;DHT22;7126;48.458;7.930;2023-04-09T12:07:44;18.40;95.10
14099;DHT22;7126;48.458;7.930;2023-04-09T12:10:10;18.50;94.40
14099;DHT22;7126;48.458;7.930;2023-04-09T12:12:43;18.50;94.50
14099;DHT22;7126;48.458;7.930;2023-04-09T12:17:36;18.60;93.70
14099;DHT22;7126;48.458;7.930;2023-04-09T12:20:02;18.90;93.40
14099;DHT22;7126;48.458;7.930;2023-04-09T12:22:27;19.10;92.50
14099;DHT22;7126;48.458;7.930;2023-04-09T12:24:53;18.90;91.90
14099;DHT22;7126;48.458;7.930;2023-04-09T12:27:19;18.90;91.90
14099;DHT22;7126;48.458;7.930;2023-04-09T12:29:45;18.70;92.70
14099;DHT22;7126;48.458;7.930;2023-04-09T12:32:11;18.90;92.60
14099;DHT22;7126;48.458;7.930;2023-04-09T12:34:36;18.80;92.00
14099;DHT22;7126;48.458;7.930;2023-04-09T12:37:02;18.90;93.00
14099;DHT22;7126;48.458;7.930;2023-04-09T12:39:28;19.30;92.60
14099;DHT22;7126;48.458;7.930;2023-04-09T12:41:54;19.20;90.90
14099;DHT22;7126;48.458;7.930;2023-04-09T12:44:20;19.40;92.80
14099;DHT22;7126;48.458;7.930;2023-04-09T12:46:45;19.60;91.90
14099;DHT22;7126;48.458;7.930;2023-04-09T12:49:11;19.60;90.90
14099;DHT22;7126;48.458;7.930;2023-04-09T12:51:36;19.70;90.40
14099;DHT22;7126;48.458;7.930;2023-04-09T12:54:02;19.90;90.50
14099;DHT22;7126;48.458;7.930;2023-04-09T12:56:28;20.20;90.00
14099;DHT22;7126;48.458;7.930;2023-04-09T12:58:53;20.10;90.00
14099;DHT22;7126;48.458;7.930;2023-04-09T13:01:19;20.30;91.70
14099;DHT22;7126;48.458;7.930;2023-04-09T13:03:45;20.10;90.80
14099;DHT22;7126;48.458;7.930;2023-04-09T13:06:11;20.20;90.30
14099;DHT22;7126;48.458;7.930;2023-04-09T13:08:36;20.40;88.20
14099;DHT22;7126;48.458;7.930;2023-04-09T13:11:02;20.00;87.60
14099;DHT22;7126;48.458;7.930;2023-04-09T13:13:28;20.00;90.90
14099;DHT22;7126;48.458;7.930;2023-04-09T13:15:54;20.10;88.20
14099;DHT22;7126;48.458;7.930;2023-04-09T13:18:19;20.30;90.10
14099;DHT22;7126;48.458;7.930;2023-04-09T13:20:45;20.50;90.50
14099;DHT22;7126;48.458;7.930;2023-04-09T13:23:10;20.40;90.20
14099;DHT22;7126;48.458;7.930;2023-04-09T13:25:36;20.40;90.80
14099;DHT22;7126;48.458;7.930;2023-04-09T13:28:02;20.30;90.50
14099;DHT22;7126;48.458;7.930;2023-04-09T13:30:27;20.60;90.50
14099;DHT22;7126;48.458;7.930;2023-04-09T13:32:53;20.90;89.90
14099;DHT22;7126;48.458;7.930;2023-04-09T13:35:18;20.90;88.70
14099;DHT22;7126;48.458;7.930;2023-04-09T13:37:44;20.50;88.40
14099;DHT22;7126;48.458;7.930;2023-04-09T13:40:10;20.20;87.10
14099;DHT22;7126;48.458;7.930;2023-04-09T13:42:36;20.00;85.90
14099;DHT22;7126;48.458;7.930;2023-04-09T13:45:04;19.90;87.40
14099;DHT22;7126;48.458;7.930;2023-04-09T13:47:30;19.90;87.80
14099;DHT22;7126;48.458;7.930;2023-04-09T13:49:56;19.70;87.60
14099;DHT22;7126;48.458;7.930;2023-04-09T13:52:23;19.90;88.90
14099;DHT22;7126;48.458;7.930;2023-04-09T13:54:49;19.90;88.60
14099;DHT22;7126;48.458;7.930;2023-04-09T13:57:14;20.20;88.90
14099;DHT22;7126;48.458;7.930;2023-04-09T13:59:41;20.10;86.20
14099;DHT22;7126;48.458;7.930;2023-04-09T14:02:07;20.00;86.00
14099;DHT22;7126;48.458;7.930;2023-04-09T14:04:33;19.80;87.20
14099;DHT22;7126;48.458;7.930;2023-04-09T14:06:58;20.00;87.30
14099;DHT22;7126;48.458;7.930;2023-04-09T14:09:24;19.80;85.80
14099;DHT22;7126;48.458;7.930;2023-04-09T14:11:49;19.50;86.70
14099;DHT22;7126;48.458;7.930;2023-04-09T14:14:15;19.30;86.60
14099;DHT22;7126;48.458;7.930;2023-04-09T14:16:41;19.20;88.20
14099;DHT22;7126;48.458;7.930;2023-04-09T14:19:06;19.30;89.90
14099;DHT22;7126;48.458;7.930;2023-04-09T14:21:32;19.50;88.10
14099;DHT22;7126;48.458;7.930;2023-04-09T14:23:58;19.80;88.60
14099;DHT22;7126;48.458;7.930;2023-04-09T14:26:24;20.00;86.30
14099;DHT22;7126;48.458;7.930;2023-04-09T14:28:50;19.70;85.20
14099;DHT22;7126;48.458;7.930;2023-04-09T14:31:16;19.60;85.30
14099;DHT22;7126;48.458;7.930;2023-04-09T14:33:44;19.30;86.80
14099;DHT22;7126;48.458;7.930;2023-04-09T14:36:10;19.20;85.90
14099;DHT22;7126;48.458;7.930;2023-04-09T14:38:35;19.30;90.40
14099;DHT22;7126;48.458;7.930;2023-04-09T14:41:01;19.30;86.60
14099;DHT22;7126;48.458;7.930;2023-04-09T14:43:27;19.40;87.30
14099;DHT22;7126;48.458;7.930;2023-04-09T14:45:52;19.60;89.70
14099;DHT22;7126;48.458;7.930;2023-04-09T14:48:18;19.50;84.90
14099;DHT22;7126;48.458;7.930;2023-04-09T14:50:44;19.30;87.90
14099;DHT22;7126;48.458;7.930;2023-04-09T14:53:10;19.20;87.10
14099;DHT22;7126;48.458;7.930;2023-04-09T14:55:37;18.90;86.90
14099;DHT22;7126;48.458;7.930;2023-04-09T14:58:03;18.70;86.90
14099;DHT22;7126;48.458;7.930;2023-04-09T15:00:31;18.70;86.90
14099;DHT22;7126;48.458;7.930;2023-04-09T15:02:58;18.70;87.80
14099;DHT22;7126;48.458;7.930;2023-04-09T15:05:23;18.80;86.10
14099;DHT22;7126;48.458;7.930;2023-04-09T15:07:49;18.70;87.80
14099;DHT22;7126;48.458;7.930;2023-04-09T15:10:14;18.70;88.10
14099;DHT22;7126;48.458;7.930;2023-04-09T15:12:40;18.80;87.60
14099;DHT22;7126;48.458;7.930;2023-04-09T15:15:07;18.90;85.40
14099;DHT22;7126;48.458;7.930;2023-04-09T15:17:33;18.90;86.00
14099;DHT22;7126;48.458;7.930;2023-04-09T15:19:59;18.90;86.60
14099;DHT22;7126;48.458;7.930;2023-04-09T15:22:25;18.90;86.50
14099;DHT22;7126;48.458;7.930;2023-04-09T15:24:50;18.90;85.60
14099;DHT22;7126;48.458;7.930;2023-04-09T15:27:16;18.90;85.40
14099;DHT22;7126;48.458;7.930;2023-04-09T15:29:42;18.80;87.90
14099;DHT22;7126;48.458;7.930;2023-04-09T15:32:08;18.50;86.70
14099;DHT22;7126;48.458;7.930;2023-04-09T15:34:34;18.40;86.30
14099;DHT22;7126;48.458;7.930;2023-04-09T15:36:59;18.20;86.00
14099;DHT22;7126;48.458;7.930;2023-04-09T15:39:25;18.20;88.00
14099;DHT22;7126;48.458;7.930;2023-04-09T15:41:53;18.20;86.90
14099;DHT22;7126;48.458;7.930;2023-04-09T15:44:20;18.20;86.70
14099;DHT22;7126;48.458;7.930;2023-04-09T15:46:46;18.10;86.50
14099;DHT22;7126;48.458;7.930;2023-04-09T15:49:12;18.10;87.10
14099;DHT22;7126;48.458;7.930;2023-04-09T15:51:37;18.10;87.00
14099;DHT22;7126;48.458;7.930;2023-04-09T15:54:03;18.10;88.80
14099;DHT22;7126;48.458;7.930;2023-04-09T15:56:28;18.10;89.40
14099;DHT22;7126;48.458;7.930;2023-04-09T15:58:54;18.00;88.90
14099;DHT22;7126;48.458;7.930;2023-04-09T16:01:19;17.80;89.50
14099;DHT22;7126;48.458;7.930;2023-04-09T16:03:45;17.80;86.30
14099;DHT22;7126;48.458;7.930;2023-04-09T16:06:16;17.80;86.50